Time;durP1;ratioP1;P1;durP2;ratioP2;P2;SDS_P1;SDS_P2;PMS_P1;PMS_P2;Temp;Humidity;BMP_temperature;BMP_pressure;BME280_temperature;BME280_humidity;BME280_pressure;Samples;Min_cycle;Max_cycle;Signal;HPM_P1;HPM_P2
2021/11/09 00:00:41;;;;;;;6.75;5.00;;;7.80;99.90;;;;;;4876305;29;20035;-77
2021/11/09 00:03:09;;;;;;;8.20;5.20;;;7.70;99.90;;;;;;4877269;29;20031;-78
2021/11/09 00:05:43;;;;;;;7.45;4.75;;;7.70;99.90;;;;;;4878257;29;20029;-77
2021/11/09 00:08:13;;;;;;;8.25;5.15;;;7.70;99.90;;;;;;4876722;29;20132;-78
2021/11/09 00:10:39;;;;;;;6.82;4.78;;;7.60;99.90;;;;;;4877462;29;20028;-78
2021/11/09 00:13:04;;;;;;;9.63;5.53;;;7.60;99.90;;;;;;4877544;29;20120;-78
2021/11/09 00:15:33;;;;;;;8.75;5.20;;;7.60;99.90;;;;;;4876852;29;20053;-78
2021/11/09 00:18:01;;;;;;;8.10;5.43;;;7.60;99.90;;;;;;4876087;29;20025;-78
2021/11/09 00:20:29;;;;;;;10.15;5.35;;;7.50;99.90;;;;;;4876931;29;20032;-78
2021/11/09 00:22:55;;;;;;;10.10;7.18;;;7.50;99.90;;;;;;4877349;29;20123;-78
2021/11/09 00:25:24;;;;;;;8.45;5.38;;;7.50;99.90;;;;;;4876812;29;20021;-79
2021/11/09 00:27:50;;;;;;;8.30;5.55;;;7.40;99.90;;;;;;4876547;29;20044;-79
2021/11/09 00:30:18;;;;;;;8.13;5.38;;;7.40;99.90;;;;;;4875822;29;20029;-79
2021/11/09 00:32:43;;;;;;;9.68;5.78;;;7.40;99.90;;;;;;4877952;29;20043;-78
2021/11/09 00:35:11;;;;;;;8.35;5.60;;;7.40;99.90;;;;;;4876454;29;20022;-78
2021/11/09 00:37:38;;;;;;;8.65;5.68;;;7.30;99.90;;;;;;4877365;29;20040;-77
2021/11/09 00:40:05;;;;;;;8.68;5.50;;;7.30;99.90;;;;;;4876531;29;20025;-78
2021/11/09 00:42:30;;;;;;;8.52;5.15;;;7.30;99.90;;;;;;4876674;29;20037;-78
2021/11/09 00:44:56;;;;;;;12.63;6.03;;;7.30;99.90;;;;;;4875671;29;20136;-78
2021/11/09 00:47:22;;;;;;;10.40;5.47;;;7.20;99.90;;;;;;4877712;29;20033;-78
2021/11/09 00:49:48;;;;;;;9.80;5.30;;;7.20;99.90;;;;;;4876459;29;20035;-78
2021/11/09 00:52:14;;;;;;;10.40;5.45;;;7.20;99.90;;;;;;4875614;29;20057;-78
2021/11/09 00:54:41;;;;;;;8.27;5.50;;;7.20;99.90;;;;;;4876553;29;20073;-78
2021/11/09 00:57:07;;;;;;;13.73;6.15;;;7.20;99.90;;;;;;4886683;29;20517;-78
2021/11/09 00:59:33;;;;;;;10.95;6.05;;;7.10;99.90;;;;;;4878829;29;20076;-78
2021/11/09 01:01:58;;;;;;;6.90;5.38;;;7.10;99.90;;;;;;4896184;29;20481;-78
2021/11/09 01:04:25;;;;;;;10.32;5.75;;;7.10;99.90;;;;;;4896373;29;20024;-78
2021/11/09 01:06:51;;;;;;;8.65;5.57;;;7.10;99.90;;;;;;4878825;29;20047;-77
2021/11/09 01:09:17;;;;;;;9.23;5.65;;;7.10;99.90;;;;;;4896025;29;20107;-77
2021/11/09 01:11:42;;;;;;;7.22;5.28;;;7.00;99.90;;;;;;4896157;29;20037;-77
2021/11/09 01:14:08;;;;;;;7.95;5.13;;;7.00;99.90;;;;;;4881815;29;20025;-78
2021/11/09 01:16:35;;;;;;;9.27;5.43;;;7.00;99.90;;;;;;4899747;29;20464;-78
2021/11/09 01:19:04;;;;;;;8.65;5.80;;;7.00;99.90;;;;;;4881884;29;20111;-78
2021/11/09 01:21:32;;;;;;;8.02;5.28;;;7.00;99.90;;;;;;4898405;29;20413;-78
2021/11/09 01:23:58;;;;;;;6.80;5.10;;;7.00;99.90;;;;;;4899220;29;20486;-78
2021/11/09 01:26:24;;;;;;;5.85;5.05;;;6.90;99.90;;;;;;4881882;29;20127;-78
2021/11/09 01:28:53;;;;;;;6.15;4.53;;;6.90;99.90;;;;;;4899273;29;20039;-78
2021/11/09 01:31:19;;;;;;;10.15;5.47;;;6.90;99.90;;;;;;4899094;29;20358;-78
2021/11/09 01:33:45;;;;;;;7.55;5.18;;;6.90;99.90;;;;;;4898520;29;20103;-79
2021/11/09 01:36:11;;;;;;;8.82;5.53;;;6.90;99.90;;;;;;4899274;29;20028;-78
2021/11/09 01:38:37;;;;;;;9.88;5.13;;;6.90;99.90;;;;;;4882186;29;20067;-78
2021/11/09 01:41:05;;;;;;;10.05;5.25;;;6.80;99.90;;;;;;4898411;29;20062;-78
2021/11/09 01:43:32;;;;;;;7.20;5.47;;;6.80;99.90;;;;;;4899317;29;20028;-78
2021/11/09 01:45:58;;;;;;;8.95;5.70;;;6.90;99.90;;;;;;4882073;29;20433;-78
2021/11/09 01:48:24;;;;;;;7.68;5.28;;;6.80;99.90;;;;;;4898252;29;20509;-78
2021/11/09 01:50:54;;;;;;;7.43;5.40;;;6.80;99.90;;;;;;4897873;29;20487;-79
2021/11/09 01:53:20;;;;;;;7.82;5.20;;;6.80;99.90;;;;;;4897521;29;20115;-79
2021/11/09 01:55:47;;;;;;;9.30;5.38;;;6.70;99.90;;;;;;4881920;29;20024;-79
2021/11/09 01:58:14;;;;;;;8.82;5.75;;;6.80;99.90;;;;;;4881532;29;20065;-78
2021/11/09 02:00:47;;;;;;;10.95;5.72;;;6.80;99.90;;;;;;4898945;29;20023;-78
2021/11/09 02:03:13;;;;;;;9.23;5.72;;;6.70;99.90;;;;;;4880857;29;20033;-78
2021/11/09 02:05:39;;;;;;;6.32;4.82;;;6.70;99.90;;;;;;4898646;29;20600;-78
2021/11/09 02:08:05;;;;;;;7.28;4.22;;;6.70;99.90;;;;;;4881419;29;20036;-78
2021/11/09 02:10:34;;;;;;;8.75;6.38;;;6.70;99.90;;;;;;4881259;29;20016;-78
2021/11/09 02:13:00;;;;;;;8.40;5.57;;;6.60;99.90;;;;;;4898155;29;20025;-78
2021/11/09 02:15:27;;;;;;;6.20;4.57;;;6.60;99.90;;;;;;4881233;29;20038;-77
2021/11/09 02:17:53;;;;;;;7.78;5.00;;;6.60;99.90;;;;;;4898494;29;20020;-78
2021/11/09 02:20:21;;;;;;;8.25;5.25;;;6.60;99.90;;;;;;4881372;29;20111;-78
2021/11/09 02:22:47;;;;;;;8.27;5.25;;;6.60;99.90;;;;;;4897349;29;20429;-78
2021/11/09 02:25:17;;;;;;;8.98;5.43;;;6.60;99.90;;;;;;4881298;29;20024;-78
2021/11/09 02:27:43;;;;;;;7.55;5.03;;;6.60;99.90;;;;;;4896805;29;20047;-78
2021/11/09 02:30:12;;;;;;;8.68;5.80;;;6.50;99.90;;;;;;4880901;29;20028;-78
2021/11/09 02:32:38;;;;;;;12.52;5.88;;;6.50;99.90;;;;;;4881545;29;20024;-78
2021/11/09 02:35:05;;;;;;;7.93;5.32;;;6.50;99.90;;;;;;4897936;29;20524;-78
2021/11/09 02:37:31;;;;;;;7.80;5.50;;;6.50;99.90;;;;;;4897414;29;20036;-78
2021/11/09 02:39:57;;;;;;;7.40;5.15;;;6.40;99.90;;;;;;4880756;29;20017;-78
2021/11/09 02:42:23;;;;;;;8.88;5.72;;;6.40;99.90;;;;;;4898026;29;20080;-78
2021/11/09 02:44:52;;;;;;;12.77;5.60;;;6.40;99.90;;;;;;4896003;29;20028;-78
2021/11/09 02:47:20;;;;;;;12.10;5.88;;;6.40;99.90;;;;;;4897591;29;20032;-78
2021/11/09 02:49:56;;;;;;;7.43;6.05;;;6.40;99.90;;;;;;4898031;29;20021;-78
2021/11/09 02:52:23;;;;;;;8.85;5.53;;;6.40;99.90;;;;;;4880603;29;20032;-78
2021/11/09 02:54:52;;;;;;;6.97;5.63;;;6.40;99.90;;;;;;4897810;29;20031;-77
2021/11/09 02:57:43;;;;;;;9.63;5.50;;;6.40;99.90;;;;;;4880334;29;20064;-78
2021/11/09 03:00:29;;;;;;;7.70;5.68;;;6.30;99.90;;;;;;4896899;29;20128;-77
2021/11/09 03:03:06;;;;;;;8.68;6.18;;;6.30;99.90;;;;;;4881242;29;20029;-77
2021/11/09 03:08:26;;;;;;;7.15;4.75;;;6.30;99.90;;;;;;4897447;29;20104;-77
2021/11/09 03:10:53;;;;;;;9.77;5.95;;;6.30;99.90;;;;;;4880792;29;20021;-77
2021/11/09 03:13:20;;;;;;;5.57;4.57;;;6.30;99.90;;;;;;4879994;29;20040;-77
2021/11/09 03:15:46;;;;;;;6.82;5.13;;;6.30;99.90;;;;;;4897523;29;20031;-77
2021/11/09 03:18:15;;;;;;;8.68;6.00;;;6.20;99.90;;;;;;4897071;29;20363;-77
2021/11/09 03:20:52;;;;;;;8.43;5.38;;;6.20;99.90;;;;;;4896732;29;20108;-77
2021/11/09 03:45:21;;;;;;;7.18;5.05;;;6.00;99.90;;;;;;4897105;29;20051;-77
2021/11/09 03:47:50;;;;;;;6.35;5.15;;;6.00;99.90;;;;;;4879313;29;20446;-78
2021/11/09 03:50:18;;;;;;;7.70;5.22;;;6.00;99.90;;;;;;4896736;29;20052;-77
2021/11/09 03:52:53;;;;;;;9.82;5.20;;;6.00;99.90;;;;;;4880226;29;20035;-77
2021/11/09 03:56:12;;;;;;;9.25;4.78;;;6.00;99.90;;;;;;4896094;29;20029;-78
2021/11/09 03:58:20;;;;;;;6.60;5.05;;;5.90;99.90;;;;;;4867690;29;20489;-77
2021/11/09 04:00:58;;;;;;;9.52;6.07;;;5.90;99.90;;;;;;4876558;29;20021;-77
2021/11/09 04:03:55;;;;;;;8.75;5.15;;;5.90;99.90;;;;;;4878319;29;20033;-77
2021/11/09 04:06:39;;;;;;;6.85;4.82;;;5.90;99.90;;;;;;4876886;29;20514;-77
2021/11/09 04:11:57;;;;;;;7.18;5.05;;;5.90;99.90;;;;;;4878421;29;20184;-77
2021/11/09 04:17:18;;;;;;;6.95;5.30;;;5.80;99.90;;;;;;4877478;29;20067;-77
2021/11/09 04:20:06;;;;;;;7.45;5.20;;;5.80;99.90;;;;;;4877800;29;20049;-77
2021/11/09 04:27:58;;;;;;;7.07;4.70;;;5.70;99.90;;;;;;4877852;29;20546;-77
2021/11/09 04:30:45;;;;;;;6.13;5.25;;;5.70;99.90;;;;;;4876162;29;20033;-77
2021/11/09 04:52:04;;;;;;;7.63;5.72;;;5.60;99.90;;;;;;4888351;29;20037;-77
2021/11/09 05:10:33;;;;;;;9.23;5.70;;;5.50;99.90;;;;;;4918966;29;20505;-77
2021/11/09 05:12:59;;;;;;;8.95;6.43;;;5.50;99.90;;;;;;4900776;29;20115;-76
2021/11/09 05:15:25;;;;;;;8.18;5.70;;;5.50;99.90;;;;;;4899364;29;20024;-77
2021/11/09 05:17:51;;;;;;;10.25;6.85;;;5.50;99.90;;;;;;4881872;29;20025;-78
2021/11/09 05:20:17;;;;;;;8.48;6.32;;;5.40;99.90;;;;;;4863379;29;20025;-77
2021/11/09 05:22:44;;;;;;;10.63;6.95;;;5.40;99.90;;;;;;4864264;29;20499;-76
2021/11/09 05:25:09;;;;;;;6.88;5.75;;;5.40;99.90;;;;;;4863353;29;20048;-76
2021/11/09 05:27:35;;;;;;;7.97;6.38;;;5.40;99.90;;;;;;4880663;29;20490;-76
2021/11/09 05:30:01;;;;;;;8.10;6.28;;;5.40;99.90;;;;;;4871242;29;20068;-75
2021/11/09 05:32:27;;;;;;;10.18;7.05;;;5.40;99.90;;;;;;4894937;29;20028;-78
2021/11/09 05:34:52;;;;;;;10.13;6.75;;;5.40;99.90;;;;;;4879068;29;20021;-79
2021/11/09 05:37:22;;;;;;;9.82;6.85;;;5.40;99.90;;;;;;4898348;29;20171;-77
2021/11/09 05:39:56;;;;;;;8.77;5.90;;;5.40;99.90;;;;;;4898047;29;20024;-81
2021/11/09 05:42:22;;;;;;;9.85;8.40;;;5.40;99.90;;;;;;4899266;29;20533;-81
2021/11/09 05:44:49;;;;;;;9.35;6.88;;;5.40;99.90;;;;;;4898532;29;20028;-72
2021/11/09 05:47:15;;;;;;;9.75;7.18;;;5.30;99.90;;;;;;4892032;29;20119;-76
2021/11/09 05:49:41;;;;;;;10.52;6.65;;;5.40;99.90;;;;;;4884750;29;20029;-76
2021/11/09 05:52:08;;;;;;;10.80;6.75;;;5.40;99.90;;;;;;4863188;29;20033;-77
2021/11/09 05:54:34;;;;;;;7.15;5.50;;;5.40;99.90;;;;;;4876695;29;20036;-77
2021/11/09 05:57:00;;;;;;;9.15;5.88;;;5.30;99.90;;;;;;4880078;29;20469;-77
2021/11/09 05:59:26;;;;;;;8.95;5.90;;;5.40;99.90;;;;;;4880780;29;20017;-77
2021/11/09 06:01:51;;;;;;;9.10;6.60;;;5.40;99.90;;;;;;4879812;29;20025;-76
2021/11/09 06:04:17;;;;;;;8.23;6.07;;;5.30;99.90;;;;;;4878211;29;20409;-77
2021/11/09 06:06:43;;;;;;;9.55;6.63;;;5.30;99.90;;;;;;4897909;29;20052;-73
2021/11/09 06:09:08;;;;;;;12.35;6.75;;;5.30;99.90;;;;;;4897723;29;20104;-74
2021/11/09 06:11:34;;;;;;;10.23;6.70;;;5.30;99.90;;;;;;4898849;29;20029;-76
2021/11/09 06:14:00;;;;;;;9.48;6.82;;;5.30;99.90;;;;;;4897203;29;20061;-73
2021/11/09 06:16:26;;;;;;;9.05;6.70;;;5.20;99.90;;;;;;4887092;29;20493;-76
2021/11/09 06:18:52;;;;;;;8.65;6.82;;;5.30;99.90;;;;;;4898372;29;20385;-78
2021/11/09 13:54:04;;;;;;;17.30;7.55;;;9.70;99.90;;;;;;5626367;23;20064;-77
2021/11/09 13:56:31;;;;;;;14.13;6.57;;;9.70;99.90;;;;;;4885234;29;20104;-80
2021/11/09 13:58:59;;;;;;;16.23;7.70;;;9.70;99.90;;;;;;4894739;29;20032;-81
2021/11/09 14:01:39;;;;;;;11.55;6.70;;;9.80;99.90;;;;;;4886351;29;20503;-77
2021/11/09 14:04:31;;;;;;;16.35;7.05;;;9.80;99.90;;;;;;4890229;29;20047;-76
2021/11/09 14:07:14;;;;;;;12.18;6.03;;;9.90;99.90;;;;;;4917550;29;20050;-77
2021/11/09 14:12:23;;;;;;;13.85;7.05;;;10.00;99.90;;;;;;4915240;29;20036;-78
2021/11/09 14:14:59;;;;;;;17.10;6.55;;;10.10;99.90;;;;;;4895780;29;20052;-80
2021/11/09 14:17:32;;;;;;;11.73;5.43;;;10.10;99.90;;;;;;4877190;29;20132;-78
2021/11/09 14:20:13;;;;;;;13.88;6.45;;;10.10;99.90;;;;;;4894741;29;20032;-77
2021/11/09 14:22:39;;;;;;;12.43;5.82;;;10.20;99.90;;;;;;4879068;29;20033;-77
2021/11/09 14:25:09;;;;;;;13.80;6.43;;;10.20;99.90;;;;;;4897220;29;20031;-76
2021/11/09 14:27:40;;;;;;;14.75;7.63;;;10.20;99.90;;;;;;4913336;29;20036;-76
2021/11/09 14:30:08;;;;;;;11.95;4.95;;;10.20;99.90;;;;;;4913251;29;20044;-78
2021/11/09 14:32:37;;;;;;;11.10;6.03;;;10.30;99.90;;;;;;4914577;29;20028;-76
2021/11/09 14:35:14;;;;;;;10.85;5.70;;;10.30;99.90;;;;;;4912105;29;20023;-77
2021/11/09 14:38:01;;;;;;;11.25;5.15;;;10.30;99.90;;;;;;4913712;29;20036;-77
2021/11/09 14:40:42;;;;;;;20.13;6.85;;;10.30;99.90;;;;;;4897462;29;20052;-79
2021/11/09 14:43:39;;;;;;;18.10;6.57;;;10.40;99.90;;;;;;4895500;29;20096;-79
2021/11/09 14:46:12;;;;;;;14.75;6.32;;;10.50;99.90;;;;;;4889452;29;20040;-77
2021/11/09 14:51:30;;;;;;;10.60;4.82;;;10.50;99.90;;;;;;4907157;29;20040;-77
2021/11/09 14:54:12;;;;;;;7.35;4.50;;;10.50;99.90;;;;;;4894443;29;20033;-77
2021/11/09 14:56:39;;;;;;;6.22;4.03;;;10.50;99.90;;;;;;4894652;29;20036;-76
2021/11/09 14:59:07;;;;;;;10.90;5.53;;;10.60;99.90;;;;;;4875747;29;20043;-77
2021/11/09 15:04:49;;;;;;;6.15;4.40;;;10.60;99.90;;;;;;4877447;29;20040;-78
2021/11/09 15:28:28;;;;;;;6.10;3.92;;;10.60;99.90;;;;;;4895380;29;20072;-82
2021/11/09 15:31:01;;;;;;;9.45;4.68;;;10.60;99.90;;;;;;4893057;29;20108;-80
2021/11/09 15:33:32;;;;;;;7.35;3.92;;;10.50;99.90;;;;;;4877478;29;20079;-81
2021/11/09 15:38:31;;;;;;;6.95;3.83;;;10.50;99.90;;;;;;4895411;29;20036;-91
2021/11/09 15:40:57;;;;;;;8.88;4.45;;;10.50;99.90;;;;;;4893798;29;20039;-82
2021/11/09 15:43:23;;;;;;;9.43;5.70;;;10.50;99.90;;;;;;4904492;29;20067;-83
2021/11/09 15:45:50;;;;;;;9.02;4.63;;;10.40;99.90;;;;;;4888107;29;20484;-80
2021/11/09 15:48:16;;;;;;;8.55;4.38;;;10.40;99.90;;;;;;4895918;29;20043;-84
2021/11/09 15:50:42;;;;;;;9.82;5.03;;;10.40;99.90;;;;;;4877736;29;20800;-81
2021/11/09 15:53:08;;;;;;;9.70;4.97;;;10.30;99.90;;;;;;4895110;29;20044;-83
2021/11/09 15:55:34;;;;;;;12.32;5.40;;;10.30;99.90;;;;;;4895974;29;20052;-79
2021/11/09 15:57:59;;;;;;;9.75;5.45;;;10.20;99.90;;;;;;4910244;29;20047;-82
2021/11/09 16:00:25;;;;;;;9.85;4.90;;;10.20;99.90;;;;;;4903777;29;20029;-80
2021/11/09 16:02:51;;;;;;;7.80;4.22;;;10.20;99.90;;;;;;4903303;29;20044;-79
2021/11/09 16:05:18;;;;;;;10.25;4.40;;;10.10;99.90;;;;;;4877114;29;20095;-78
2021/11/09 16:07:45;;;;;;;10.02;5.10;;;10.10;99.90;;;;;;4877001;29;20071;-80
2021/11/09 16:10:16;;;;;;;8.50;4.43;;;10.00;99.90;;;;;;4877029;29;20024;-80
2021/11/09 16:12:42;;;;;;;9.90;4.18;;;10.00;99.90;;;;;;4887807;29;20056;-80
2021/11/09 16:15:09;;;;;;;7.07;3.97;;;9.90;99.90;;;;;;4876175;29;20032;-80
2021/11/09 16:17:37;;;;;;;9.27;4.25;;;9.80;99.90;;;;;;4877983;29;20029;-79
2021/11/09 16:20:08;;;;;;;8.80;4.03;;;9.80;99.90;;;;;;4877974;29;20024;-84
2021/11/09 16:22:34;;;;;;;6.95;3.15;;;9.70;99.90;;;;;;4876511;29;20097;-77
2021/11/09 16:25:02;;;;;;;7.90;4.32;;;9.70;99.90;;;;;;4876478;29;20178;-77
2021/11/09 16:30:51;;;;;;;6.78;3.83;;;9.50;99.90;;;;;;4892313;29;20047;-78
2021/11/09 16:33:22;;;;;;;8.10;4.00;;;9.50;99.90;;;;;;4893309;29;20032;-75
2021/11/09 16:35:51;;;;;;;9.13;4.47;;;9.40;99.90;;;;;;4876820;29;20057;-74
2021/11/09 16:38:30;;;;;;;7.95;4.35;;;9.30;99.90;;;;;;4876425;29;20028;-77
2021/11/09 16:40:56;;;;;;;9.27;4.70;;;9.20;99.90;;;;;;4873255;29;20509;-75
2021/11/09 16:43:27;;;;;;;8.10;4.57;;;9.20;99.90;;;;;;4878284;29;20140;-85
2021/11/09 16:48:36;;;;;;;9.80;4.90;;;9.10;99.90;;;;;;4883623;29;20045;-74
2021/11/09 16:53:28;;;;;;;7.82;4.22;;;9.00;99.90;;;;;;4882528;29;20048;-77
2021/11/09 16:56:14;;;;;;;7.72;4.85;;;9.00;99.90;;;;;;4878626;29;20077;-80
2021/11/09 17:22:50;;;;;;;9.80;5.20;;;8.70;99.90;;;;;;4896353;29;20123;-76
2021/11/09 18:05:33;;;;;;;10.25;6.57;;;9.10;99.90;;;;;;4877398;29;20433;-74
2021/11/09 18:13:06;;;;;;;9.23;5.63;;;9.20;99.90;;;;;;4837960;29;20073;-74
2021/11/09 18:15:38;;;;;;;9.40;6.15;;;9.30;99.90;;;;;;4880534;29;20031;-74
2021/11/09 18:20:50;;;;;;;11.15;6.05;;;9.40;99.90;;;;;;4877119;29;20528;-74
2021/11/09 18:23:16;;;;;;;9.05;6.43;;;9.40;99.90;;;;;;4876265;29;20033;-74
2021/11/09 18:25:42;;;;;;;11.77;6.15;;;9.50;99.90;;;;;;4880279;29;20036;-74
2021/11/09 18:28:10;;;;;;;8.85;5.43;;;9.50;99.90;;;;;;4878349;29;20092;-75
2021/11/09 18:30:41;;;;;;;9.15;5.55;;;9.50;99.90;;;;;;4888455;29;20029;-74
2021/11/09 18:33:09;;;;;;;6.40;4.90;;;9.50;99.90;;;;;;4895138;29;20067;-73
2021/11/09 18:35:40;;;;;;;7.80;4.80;;;9.60;99.90;;;;;;4887991;29;20031;-74
2021/11/09 18:38:07;;;;;;;10.87;5.70;;;9.60;99.90;;;;;;4881551;29;20040;-75
2021/11/09 18:40:36;;;;;;;8.35;5.80;;;9.60;99.90;;;;;;4897129;29;20346;-75
2021/11/09 18:43:04;;;;;;;9.10;5.57;;;9.60;99.90;;;;;;4907733;29;20021;-76
2021/11/09 18:45:32;;;;;;;8.02;5.43;;;9.70;99.90;;;;;;4895064;29;20052;-76
2021/11/09 18:47:59;;;;;;;7.68;5.85;;;9.70;99.90;;;;;;4894806;29;20036;-75
2021/11/09 18:50:31;;;;;;;8.68;5.40;;;9.70;99.90;;;;;;4908979;29;20021;-76
2021/11/09 18:52:57;;;;;;;8.82;5.80;;;9.60;99.90;;;;;;4894118;29;20033;-75
2021/11/09 18:55:23;;;;;;;11.10;5.88;;;9.60;99.90;;;;;;4893624;29;20052;-75
2021/11/09 18:57:49;;;;;;;8.68;5.40;;;9.50;99.90;;;;;;4876187;29;20076;-73
2021/11/09 19:00:17;;;;;;;13.55;6.85;;;9.40;99.90;;;;;;4893634;29;20056;-74
2021/11/09 19:02:43;;;;;;;9.27;5.30;;;9.40;99.90;;;;;;4875494;29;20523;-74
2021/11/09 19:05:17;;;;;;;9.82;5.55;;;9.30;99.90;;;;;;4890244;29;20551;-74
2021/11/09 19:07:43;;;;;;;9.32;5.13;;;9.20;99.90;;;;;;4864805;29;20378;-74
2021/11/09 19:10:09;;;;;;;8.98;5.05;;;9.20;99.90;;;;;;4876227;29;20120;-77
2021/11/09 19:12:36;;;;;;;8.02;5.35;;;9.10;99.90;;;;;;4894180;29;20035;-77
2021/11/09 19:15:05;;;;;;;9.80;5.28;;;9.10;99.90;;;;;;4910987;29;20393;-75
2021/11/09 19:17:31;;;;;;;9.48;6.25;;;9.00;99.90;;;;;;4896686;29;20068;-72
2021/11/09 19:19:57;;;;;;;9.88;6.18;;;8.90;99.90;;;;;;4893893;29;20020;-74
2021/11/09 19:22:23;;;;;;;14.30;7.97;;;8.90;99.90;;;;;;4886521;29;20072;-73
2021/11/09 19:24:48;;;;;;;12.13;8.80;;;8.80;99.90;;;;;;4889646;29;20032;-74
2021/11/09 19:27:14;;;;;;;15.18;8.90;;;8.80;99.90;;;;;;4877123;29;20044;-76
2021/11/09 19:29:41;;;;;;;14.35;9.57;;;8.70;99.90;;;;;;4894545;29;20029;-74
2021/11/09 19:32:07;;;;;;;16.63;10.13;;;8.70;99.90;;;;;;4876874;29;20164;-75
2021/11/09 19:34:33;;;;;;;18.70;10.60;;;8.60;99.90;;;;;;4876897;29;20119;-77
2021/11/09 19:36:59;;;;;;;14.73;10.23;;;8.60;99.90;;;;;;4893861;29;20452;-77
2021/11/09 19:39:25;;;;;;;10.60;8.70;;;8.50;99.90;;;;;;4876838;29;20032;-79
2021/11/09 19:41:50;;;;;;;12.05;8.23;;;8.50;99.90;;;;;;4889248;29;20163;-75
2021/11/09 19:44:16;;;;;;;14.23;8.95;;;8.40;99.90;;;;;;4909977;29;20116;-73
2021/11/09 19:46:47;;;;;;;13.93;9.27;;;8.40;99.90;;;;;;4892649;29;20024;-75
2021/11/09 19:49:15;;;;;;;11.32;7.28;;;8.30;99.90;;;;;;4893492;29;20064;-74
2021/11/09 19:51:44;;;;;;;12.43;7.50;;;8.30;99.90;;;;;;4894220;29;20107;-75
2021/11/09 19:54:13;;;;;;;13.98;7.15;;;8.20;99.90;;;;;;4875921;29;20041;-75
2021/11/09 19:56:45;;;;;;;12.88;7.00;;;8.20;99.90;;;;;;4871043;29;20092;-75
2021/11/09 19:59:13;;;;;;;10.45;6.75;;;8.20;99.90;;;;;;4882121;29;20480;-73
2021/11/09 20:01:40;;;;;;;11.75;8.00;;;8.10;99.90;;;;;;4875758;29;20032;-79
2021/11/09 20:04:07;;;;;;;12.90;8.23;;;8.10;99.90;;;;;;4889465;29;20187;-76
2021/11/09 20:06:34;;;;;;;11.50;7.15;;;8.00;99.90;;;;;;4879481;29;20205;-80
2021/11/09 20:09:01;;;;;;;12.65;7.97;;;8.00;99.90;;;;;;4878721;29;20461;-76
2021/11/09 20:11:33;;;;;;;10.82;7.07;;;8.00;99.90;;;;;;4890737;29;20524;-78
2021/11/09 20:14:04;;;;;;;;;;;8.00;99.90;;;;;;4897563;29;20558;-80
2021/11/09 20:16:30;;;;;;;13.05;7.80;;;7.90;99.90;;;;;;4909284;29;19918;-80
2021/11/09 20:18:58;;;;;;;11.63;7.75;;;7.90;99.90;;;;;;4903276;29;20036;-79
2021/11/09 20:21:26;;;;;;;12.55;8.27;;;7.90;99.90;;;;;;4888693;29;20033;-75
2021/11/09 20:23:52;;;;;;;14.73;8.88;;;7.80;99.90;;;;;;4889122;29;20524;-88
2021/11/09 20:26:18;;;;;;;16.30;10.10;;;7.80;99.90;;;;;;4885297;29;20484;-73
2021/11/09 20:28:46;;;;;;;14.32;9.77;;;7.80;99.90;;;;;;4896765;29;20048;-76
2021/11/09 20:31:12;;;;;;;16.50;10.90;;;7.70;99.90;;;;;;4880752;29;20111;-75
2021/11/09 20:33:40;;;;;;;15.75;10.48;;;7.70;99.90;;;;;;4896939;29;20188;-78
2021/11/09 20:36:08;;;;;;;15.35;9.23;;;7.70;99.90;;;;;;4879058;29;20025;-81
2021/11/09 20:38:36;;;;;;;15.63;10.57;;;7.60;99.90;;;;;;4880776;29;20028;-83
2021/11/09 20:41:06;;;;;;;13.85;10.27;;;7.60;99.90;;;;;;4880654;29;20033;-86
2021/11/09 20:43:32;;;;;;;14.63;9.88;;;7.60;99.90;;;;;;4880360;29;20028;-84
2021/11/09 20:45:58;;;;;;;16.80;10.20;;;7.60;99.90;;;;;;4868341;29;20505;-75
2021/11/09 20:48:24;;;;;;;16.10;10.73;;;7.50;99.90;;;;;;4879186;29;20041;-75
2021/11/09 20:50:50;;;;;;;17.02;11.00;;;7.50;99.90;;;;;;4879951;29;20492;-76
2021/11/09 20:53:16;;;;;;;16.52;10.30;;;7.50;99.90;;;;;;4897016;29;20051;-76
2021/11/09 20:55:42;;;;;;;15.40;10.27;;;7.50;99.90;;;;;;4880257;29;20711;-76
2021/11/09 20:58:12;;;;;;;15.15;10.38;;;7.40;99.90;;;;;;4895424;29;20445;-76
2021/11/09 21:00:44;;;;;;;16.65;10.63;;;7.40;99.90;;;;;;4880554;29;20021;-75
2021/11/09 21:03:10;;;;;;;13.82;10.63;;;7.40;99.90;;;;;;4880133;29;20032;-75
2021/11/09 21:05:36;;;;;;;14.23;10.55;;;7.40;99.90;;;;;;4879867;29;20028;-75
2021/11/09 21:08:03;;;;;;;16.77;10.98;;;7.40;99.90;;;;;;4879213;29;20037;-75
2021/11/09 21:10:31;;;;;;;17.55;11.18;;;7.30;99.90;;;;;;4896412;29;20024;-77
2021/11/09 21:18:24;;;;;;;16.02;10.80;;;7.30;99.90;;;;;;4896657;29;20044;-83
2021/11/09 21:20:57;;;;;;;16.17;10.85;;;7.30;99.90;;;;;;4883031;29;20432;-80
2021/11/09 21:23:23;;;;;;;15.77;10.68;;;7.20;99.90;;;;;;4883574;29;20032;-77
2021/11/09 21:25:49;;;;;;;18.98;12.00;;;7.20;99.90;;;;;;4882345;29;20079;-85
2021/11/09 21:28:15;;;;;;;16.40;10.60;;;7.20;99.90;;;;;;4898796;29;20672;-85
2021/11/09 21:36:12;;;;;;;21.05;11.68;;;7.10;99.90;;;;;;4899234;29;20104;-84
2021/11/09 21:38:41;;;;;;;18.63;11.68;;;7.10;99.90;;;;;;4899161;29;20017;-83
2021/11/09 21:41:07;;;;;;;17.25;10.43;;;7.10;99.90;;;;;;4899419;29;20043;-85
2021/11/09 21:43:33;;;;;;;14.45;10.45;;;7.10;99.90;;;;;;4881740;29;20028;-76
2021/11/09 21:46:01;;;;;;;16.50;10.68;;;7.20;99.90;;;;;;4881477;29;20408;-85
2021/11/09 21:48:26;;;;;;;16.65;10.02;;;7.20;99.90;;;;;;4882646;29;20040;-85
2021/11/09 21:50:52;;;;;;;15.43;10.23;;;7.20;99.90;;;;;;4883757;29;20025;-86
2021/11/09 21:53:18;;;;;;;15.50;9.95;;;7.30;99.90;;;;;;4878642;29;20037;-85
2021/11/09 21:55:49;;;;;;;16.05;9.05;;;7.40;99.90;;;;;;4880571;29;20052;-87
2021/11/09 21:58:15;;;;;;;16.55;8.82;;;7.50;99.90;;;;;;4879394;29;20395;-82
2021/11/09 22:00:41;;;;;;;14.55;9.35;;;7.50;99.90;;;;;;4880170;29;20021;-86
2021/11/09 22:03:07;;;;;;;15.63;9.20;;;7.60;99.90;;;;;;4882240;29;20389;-85
2021/11/09 22:05:34;;;;;;;13.10;9.15;;;7.70;99.90;;;;;;4882618;29;20579;-85
2021/11/09 22:08:00;;;;;;;14.63;9.18;;;7.80;99.90;;;;;;4881903;29;20033;-86
2021/11/09 22:10:26;;;;;;;13.43;9.45;;;7.80;99.90;;;;;;4882382;29;20029;-83
2021/11/09 22:12:52;;;;;;;14.30;9.05;;;7.90;99.90;;;;;;4882595;29;20102;-81
2021/11/09 22:15:19;;;;;;;12.68;9.43;;;7.90;99.90;;;;;;4879661;29;20024;-78
2021/11/09 22:17:47;;;;;;;13.35;9.32;;;8.00;99.90;;;;;;4882001;29;20583;-80
2021/11/09 22:20:14;;;;;;;14.43;9.60;;;8.00;99.90;;;;;;4898993;29;20099;-81
2021/11/09 22:22:40;;;;;;;16.63;9.82;;;8.10;99.90;;;;;;4889124;29;20511;-81
2021/11/09 22:25:09;;;;;;;13.38;9.23;;;8.10;99.90;;;;;;4897462;29;20084;-86
2021/11/09 22:27:36;;;;;;;15.95;9.48;;;8.10;99.90;;;;;;4897794;29;20035;-77
2021/11/09 22:30:10;;;;;;;16.60;10.30;;;8.20;99.90;;;;;;4896706;29;20025;-87
2021/11/09 22:32:35;;;;;;;18.98;10.30;;;8.20;99.90;;;;;;4897995;29;20031;-78
2021/11/09 22:35:01;;;;;;;14.00;9.38;;;8.20;99.90;;;;;;4896128;29;20485;-80
2021/11/09 22:37:27;;;;;;;12.20;8.75;;;8.20;99.90;;;;;;4897992;29;20483;-82
2021/11/09 22:39:52;;;;;;;14.52;8.95;;;8.10;99.90;;;;;;4896835;29;20032;-88
2021/11/09 22:42:18;;;;;;;13.88;9.73;;;8.00;99.90;;;;;;4897797;29;20079;-84
2021/11/09 22:44:44;;;;;;;13.77;9.73;;;8.00;99.90;;;;;;4898387;29;20544;-79
2021/11/09 22:47:09;;;;;;;15.05;8.88;;;7.90;99.90;;;;;;4898061;29;20048;-77
2021/11/09 22:49:35;;;;;;;11.55;9.05;;;7.90;99.90;;;;;;4898302;29;20028;-79
2021/11/09 22:52:01;;;;;;;13.05;8.85;;;7.70;99.90;;;;;;4898332;29;20047;-86
2021/11/09 22:54:27;;;;;;;11.38;8.93;;;7.70;99.90;;;;;;4898279;29;20103;-76
2021/11/09 22:56:53;;;;;;;15.07;9.25;;;7.60;99.90;;;;;;4896549;29;20069;-81
2021/11/09 22:59:18;;;;;;;12.00;8.40;;;7.60;99.90;;;;;;4896880;29;20629;-83
2021/11/09 23:01:44;;;;;;;12.05;8.50;;;7.50;99.90;;;;;;4898145;29;20077;-81
2021/11/09 23:04:10;;;;;;;12.25;9.15;;;7.40;99.90;;;;;;4896202;29;20025;-83
2021/11/09 23:06:36;;;;;;;12.55;8.57;;;7.30;99.90;;;;;;4898319;29;20016;-80
2021/11/09 23:09:03;;;;;;;12.57;8.18;;;7.30;99.90;;;;;;4896368;29;20131;-86
2021/11/09 23:11:29;;;;;;;10.27;7.45;;;7.30;99.90;;;;;;4896725;29;20021;-83
2021/11/09 23:13:54;;;;;;;10.60;8.05;;;7.30;99.90;;;;;;4897079;29;20123;-87
2021/11/09 23:16:20;;;;;;;11.98;7.97;;;7.20;99.90;;;;;;4896610;29;20021;-87
2021/11/09 23:18:46;;;;;;;9.52;7.65;;;7.20;99.90;;;;;;4896271;29;20036;-83
2021/11/09 23:21:13;;;;;;;10.65;7.60;;;7.20;99.90;;;;;;4896696;29;20017;-83
2021/11/09 23:23:38;;;;;;;13.38;7.97;;;7.10;99.90;;;;;;4897902;29;20107;-83
2021/11/09 23:26:05;;;;;;;12.50;7.93;;;7.10;99.90;;;;;;4896058;29;20117;-83
2021/11/09 23:28:30;;;;;;;13.57;7.97;;;7.10;99.90;;;;;;4897805;29;20062;-84
2021/11/09 23:30:57;;;;;;;10.68;7.80;;;7.00;99.90;;;;;;4897058;29;20536;-82
2021/11/09 23:33:23;;;;;;;9.55;7.32;;;7.00;99.90;;;;;;4897532;29;20088;-84
2021/11/09 23:35:49;;;;;;;11.73;6.95;;;7.00;99.90;;;;;;4896595;29;20120;-81
2021/11/09 23:38:15;;;;;;;11.07;7.63;;;6.90;99.90;;;;;;4897086;29;20028;-83
2021/11/09 23:40:42;;;;;;;10.88;7.43;;;6.90;99.90;;;;;;4897795;29;20017;-88
2021/11/09 23:43:08;;;;;;;9.68;7.32;;;6.90;99.90;;;;;;4896000;29;20063;-86